Saline, United Kingdom

4:57 AM GMT on February 13, 2016 (GMT +0000)
South Queensferry | | Change Station
CLOSE
Current Station
Personal Weather Station
Location: Edinburgh, MIDLOTHIAN
Elevation: 89 ft
Nearby Weather Stations

Elev 89 ft 55.99 °N, 3.41 °W | Updated 2 minutes ago

Mostly Cloudy
Mostly Cloudy
34.5 °F
Feels Like 34 °F
N
0.0
Wind Variable Wind from South
Gusts 0.7 mph

Today
High -- | Low -- °F
--% Chance of Precip.
Yesterday
High -- | Low -- °F
Precip. -- in
Pressure 29.36 in
Visibility 3.1 miles
Clouds Mostly Cloudy 1600 ft
Windchill 34 °F
Dew Point 34 °F
Humidity 99%
Rainfall 0.00 in
Snow Depth Not available.
7:45 AM 5:11 PM
Waxing Crescent, 27% visible
METAR EGPH 130450Z AUTO 00000KT 5000 BR BKN016/// //////TCU M01/M01 Q0994
Pressure 29.36 in
Visibility 3.1 miles
Clouds Mostly Cloudy 1600 ft
Windchill 34 °F
Dew Point 34 °F
Humidity 99%
Rainfall 0.00 in
Snow Depth Not available.
7:45 AM 5:11 PM
Waxing Crescent, 27% visible
METAR EGPH 130450Z AUTO 00000KT 5000 BR BKN016/// //////TCU M01/M01 Q0994

10-Day Weather Forecast

Almanac

Astronomy

Feb. 13, 2016 Rise Set
Actual Time
Civil Twilight
Nautical Twilight
Astronomical Twilight
Moon
Length of Visible Light
Length of Day
Tomorrow will be .
, % of the Moon is Illuminated

Today's Extremes

Country Highs Country Lows

Community

WunderPhotos

Upload Photos

1,892,501 photos uploaded!

WunderBlog® & News

Nearby

Air Quality

  Air Quality AQ Index Pollutant
Not available.

Snow Depth

Station Depth Elevation

Earthquake Activity

City Distance Mag. Time & Date
Minimum magnitude displayed is 2.5.

Coastal Water Temperatures

Place Temperature

Stations

Nearby Weather Stations

Station Location Temp. Windchill Dew Point Humidity Wind Precip. Elev Updated Type